sensor_id;sensor_type;location;lat;lon;timestamp;pressure;altitude;pressure_sealevel;temperature;humidity
44138;BME280;29800;55.942;37.314;2023-06-10T00:02:00;99940.28;;;11.35;59.74
44138;BME280;29800;55.942;37.314;2023-06-10T00:04:27;99939.69;;;11.33;60.40
44138;BME280;29800;55.942;37.314;2023-06-10T00:06:53;99940.22;;;11.30;60.23
44138;BME280;29800;55.942;37.314;2023-06-10T00:09:20;99933.56;;;11.26;60.45
44138;BME280;29800;55.942;37.314;2023-06-10T00:11:47;99932.41;;;11.21;60.42
44138;BME280;29800;55.942;37.314;2023-06-10T00:14:14;99939.44;;;11.17;60.63
44138;BME280;29800;55.942;37.314;2023-06-10T00:16:40;99938.28;;;11.13;60.46
44138;BME280;29800;55.942;37.314;2023-06-10T00:19:11;99940.75;;;11.15;61.26
44138;BME280;29800;55.942;37.314;2023-06-10T00:21:40;99939.88;;;11.09;60.91
44138;BME280;29800;55.942;37.314;2023-06-10T00:24:07;99940.94;;;11.08;60.87
44138;BME280;29800;55.942;37.314;2023-06-10T00:26:39;99950.50;;;11.06;60.78
44138;BME280;29800;55.942;37.314;2023-06-10T00:29:07;99952.28;;;11.00;61.22
44138;BME280;29800;55.942;37.314;2023-06-10T00:31:34;99957.44;;;10.96;60.87
44138;BME280;29800;55.942;37.314;2023-06-10T00:34:01;99959.38;;;10.96;60.97
44138;BME280;29800;55.942;37.314;2023-06-10T00:36:28;99964.28;;;10.94;61.24
44138;BME280;29800;55.942;37.314;2023-06-10T00:38:56;99964.75;;;10.91;61.36
44138;BME280;29800;55.942;37.314;2023-06-10T00:41:23;99965.81;;;10.90;61.47
44138;BME280;29800;55.942;37.314;2023-06-10T00:43:50;99966.63;;;10.90;61.45
44138;BME280;29800;55.942;37.314;2023-06-10T00:46:17;99974.53;;;10.87;61.52
44138;BME280;29800;55.942;37.314;2023-06-10T00:48:45;99976.69;;;10.84;61.25
44138;BME280;29800;55.942;37.314;2023-06-10T00:51:11;99974.69;;;10.80;61.42
44138;BME280;29800;55.942;37.314;2023-06-10T00:53:41;99977.41;;;10.80;61.44
44138;BME280;29800;55.942;37.314;2023-06-10T00:56:08;99976.03;;;10.77;61.58
44138;BME280;29800;55.942;37.314;2023-06-10T00:58:35;99981.50;;;10.77;61.60
44138;BME280;29800;55.942;37.314;2023-06-10T01:01:02;99980.31;;;10.73;61.66
44138;BME280;29800;55.942;37.314;2023-06-10T01:03:30;99981.38;;;10.72;62.18
44138;BME280;29800;55.942;37.314;2023-06-10T01:08:56;99985.78;;;10.73;62.02
44138;BME280;29800;55.942;37.314;2023-06-10T01:11:32;99989.25;;;10.69;62.29
44138;BME280;29800;55.942;37.314;2023-06-10T01:14:00;99997.63;;;10.62;62.45
44138;BME280;29800;55.942;37.314;2023-06-10T01:16:27;99997.84;;;10.60;62.70
44138;BME280;29800;55.942;37.314;2023-06-10T01:18:54;100004.91;;;10.56;62.77
44138;BME280;29800;55.942;37.314;2023-06-10T01:21:23;100005.16;;;10.55;62.88
44138;BME280;29800;55.942;37.314;2023-06-10T01:23:52;100008.38;;;10.52;63.14
44138;BME280;29800;55.942;37.314;2023-06-10T01:26:20;100005.06;;;10.50;63.09
44138;BME280;29800;55.942;37.314;2023-06-10T01:29:17;100020.47;;;10.56;63.15
44138;BME280;29800;55.942;37.314;2023-06-10T01:31:54;100020.88;;;10.47;63.32
44138;BME280;29800;55.942;37.314;2023-06-10T01:34:24;100021.34;;;10.44;63.66
44138;BME280;29800;55.942;37.314;2023-06-10T01:36:50;100025.66;;;10.40;64.21
44138;BME280;29800;55.942;37.314;2023-06-10T01:39:21;100035.41;;;10.36;64.19
44138;BME280;29800;55.942;37.314;2023-06-10T01:41:49;100031.50;;;10.32;64.33
44138;BME280;29800;55.942;37.314;2023-06-10T01:44:23;100035.91;;;10.33;64.82
44138;BME280;29800;55.942;37.314;2023-06-10T01:46:50;100036.84;;;10.27;64.57
44138;BME280;29800;55.942;37.314;2023-06-10T01:49:16;100041.84;;;10.30;64.44
44138;BME280;29800;55.942;37.314;2023-06-10T01:51:43;100040.97;;;10.29;64.72
44138;BME280;29800;55.942;37.314;2023-06-10T01:54:10;100040.53;;;10.33;64.60
44138;BME280;29800;55.942;37.314;2023-06-10T01:56:36;100043.03;;;10.34;64.83
44138;BME280;29800;55.942;37.314;2023-06-10T01:59:02;100045.53;;;10.36;65.08
44138;BME280;29800;55.942;37.314;2023-06-10T02:01:29;100044.22;;;10.38;64.96
44138;BME280;29800;55.942;37.314;2023-06-10T02:03:55;100045.88;;;10.39;64.27
44138;BME280;29800;55.942;37.314;2023-06-10T02:06:21;100041.00;;;10.41;64.47
44138;BME280;29800;55.942;37.314;2023-06-10T02:08:48;100041.00;;;10.41;64.50
44138;BME280;29800;55.942;37.314;2023-06-10T02:11:14;100053.34;;;10.44;64.30
44138;BME280;29800;55.942;37.314;2023-06-10T02:13:40;100050.97;;;10.47;63.99
44138;BME280;29800;55.942;37.314;2023-06-10T02:16:08;100056.06;;;10.56;64.14
44138;BME280;29800;55.942;37.314;2023-06-10T02:18:39;100051.19;;;10.58;64.05
44138;BME280;29800;55.942;37.314;2023-06-10T02:21:08;100054.50;;;10.60;63.88
44138;BME280;29800;55.942;37.314;2023-06-10T02:23:35;100055.09;;;10.62;64.27
44138;BME280;29800;55.942;37.314;2023-06-10T02:26:04;100054.63;;;10.65;63.62
44138;BME280;29800;55.942;37.314;2023-06-10T02:28:30;100054.72;;;10.70;63.25
44138;BME280;29800;55.942;37.314;2023-06-10T02:30:58;100059.22;;;10.76;63.48
44138;BME280;29800;55.942;37.314;2023-06-10T02:33:26;100058.50;;;10.81;63.64
44138;BME280;29800;55.942;37.314;2023-06-10T02:35:55;100066.31;;;10.89;64.54
44138;BME280;29800;55.942;37.314;2023-06-10T02:38:22;100062.72;;;10.89;63.63
44138;BME280;29800;55.942;37.314;2023-06-10T02:40:49;100061.75;;;10.95;63.64
44138;BME280;29800;55.942;37.314;2023-06-10T02:43:15;100071.66;;;10.96;63.61
44138;BME280;29800;55.942;37.314;2023-06-10T02:45:43;100070.16;;;11.05;63.71
44138;BME280;29800;55.942;37.314;2023-06-10T02:48:10;100066.78;;;11.15;62.75
44138;BME280;29800;55.942;37.314;2023-06-10T02:50:37;100068.78;;;11.19;nan
44138;BME280;29800;55.942;37.314;2023-06-10T02:53:24;100077.09;;;11.25;61.82
44138;BME280;29800;55.942;37.314;2023-06-10T02:55:56;100074.97;;;11.27;61.88
44138;BME280;29800;55.942;37.314;2023-06-10T02:58:22;100079.09;;;11.29;62.29
44138;BME280;29800;55.942;37.314;2023-06-10T03:00:49;100078.38;;;11.34;62.18
44138;BME280;29800;55.942;37.314;2023-06-10T03:03:16;100068.22;;;11.34;61.72
44138;BME280;29800;55.942;37.314;2023-06-10T03:05:52;100078.53;;;11.44;61.55
44138;BME280;29800;55.942;37.314;2023-06-10T03:08:20;100085.53;;;11.52;61.16
44138;BME280;29800;55.942;37.314;2023-06-10T03:10:46;100071.91;;;11.57;61.43
44138;BME280;29800;55.942;37.314;2023-06-10T03:13:16;100083.19;;;11.61;61.47
44138;BME280;29800;55.942;37.314;2023-06-10T03:15:42;100071.75;;;11.64;61.39
44138;BME280;29800;55.942;37.314;2023-06-10T03:18:14;100070.75;;;11.70;61.19
44138;BME280;29800;55.942;37.314;2023-06-10T03:20:43;100080.22;;;11.79;61.93
44138;BME280;29800;55.942;37.314;2023-06-10T03:23:11;100086.22;;;11.93;62.75
44138;BME280;29800;55.942;37.314;2023-06-10T03:25:37;100086.19;;;12.10;61.37
44138;BME280;29800;55.942;37.314;2023-06-10T03:28:04;100080.81;;;12.15;59.49
44138;BME280;29800;55.942;37.314;2023-06-10T03:30:31;100078.38;;;12.19;59.53
44138;BME280;29800;55.942;37.314;2023-06-10T03:32:58;100078.38;;;12.19;59.21
44138;BME280;29800;55.942;37.314;2023-06-10T03:35:26;100079.78;;;12.21;59.02
44138;BME280;29800;55.942;37.314;2023-06-10T03:37:53;100083.19;;;12.28;59.23
44138;BME280;29800;55.942;37.314;2023-06-10T03:40:19;100081.72;;;12.43;59.38
44138;BME280;29800;55.942;37.314;2023-06-10T03:42:47;100091.44;;;12.50;58.24
44138;BME280;29800;55.942;37.314;2023-06-10T03:45:16;100093.41;;;12.55;57.83
44138;BME280;29800;55.942;37.314;2023-06-10T03:47:45;100097.91;;;12.61;57.29
44138;BME280;29800;55.942;37.314;2023-06-10T03:50:16;100087.59;;;12.74;59.51
44138;BME280;29800;55.942;37.314;2023-06-10T03:52:45;100093.81;;;12.86;59.02
44138;BME280;29800;55.942;37.314;2023-06-10T03:55:14;100092.19;;;12.90;56.31
44138;BME280;29800;55.942;37.314;2023-06-10T03:57:44;100088.13;;;12.93;56.45
44138;BME280;29800;55.942;37.314;2023-06-10T04:00:11;100089.25;;;12.97;55.38
44138;BME280;29800;55.942;37.314;2023-06-10T04:02:41;100089.59;;;13.00;54.92
44138;BME280;29800;55.942;37.314;2023-06-10T04:05:18;100099.00;;;13.10;54.93
44138;BME280;29800;55.942;37.314;2023-06-10T04:07:44;100095.25;;;13.16;54.62
44138;BME280;29800;55.942;37.314;2023-06-10T04:10:11;100102.59;;;13.32;56.25
44138;BME280;29800;55.942;37.314;2023-06-10T04:12:38;100106.09;;;13.55;56.93
44138;BME280;29800;55.942;37.314;2023-06-10T04:15:05;100109.53;;;13.72;56.95
44138;BME280;29800;55.942;37.314;2023-06-10T04:17:31;100098.59;;;13.77;52.95
44138;BME280;29800;55.942;37.314;2023-06-10T04:19:57;100101.16;;;13.89;53.42
44138;BME280;29800;55.942;37.314;2023-06-10T04:22:25;100102.06;;;14.00;52.73
44138;BME280;29800;55.942;37.314;2023-06-10T04:24:52;100100.78;;;14.13;52.80
44138;BME280;29800;55.942;37.314;2023-06-10T04:27:19;100105.00;;;14.31;54.15
44138;BME280;29800;55.942;37.314;2023-06-10T04:29:46;100107.25;;;14.34;50.47
44138;BME280;29800;55.942;37.314;2023-06-10T04:32:12;100097.63;;;14.37;50.66
44138;BME280;29800;55.942;37.314;2023-06-10T04:34:39;100105.03;;;14.36;49.54
44138;BME280;29800;55.942;37.314;2023-06-10T04:37:06;100106.44;;;14.33;50.06
44138;BME280;29800;55.942;37.314;2023-06-10T04:39:33;100107.78;;;14.31;49.40
44138;BME280;29800;55.942;37.314;2023-06-10T04:42:01;100108.81;;;14.25;49.58
44138;BME280;29800;55.942;37.314;2023-06-10T04:44:29;100098.91;;;14.19;49.66
44138;BME280;29800;55.942;37.314;2023-06-10T04:46:57;100111.59;;;14.25;49.71
44138;BME280;29800;55.942;37.314;2023-06-10T04:49:23;100118.53;;;14.38;49.00
44138;BME280;29800;55.942;37.314;2023-06-10T04:51:49;100118.91;;;14.46;47.75
44138;BME280;29800;55.942;37.314;2023-06-10T04:54:17;100116.78;;;14.64;50.77
44138;BME280;29800;55.942;37.314;2023-06-10T04:56:43;100121.25;;;14.75;49.60
44138;BME280;29800;55.942;37.314;2023-06-10T04:59:10;100127.13;;;14.89;50.88
44138;BME280;29800;55.942;37.314;2023-06-10T05:01:36;100126.84;;;14.91;49.05
44138;BME280;29800;55.942;37.314;2023-06-10T05:04:02;100126.28;;;14.94;49.68
44138;BME280;29800;55.942;37.314;2023-06-10T05:06:30;100139.25;;;14.93;49.06
44138;BME280;29800;55.942;37.314;2023-06-10T05:08:56;100136.78;;;14.97;47.82
44138;BME280;29800;55.942;37.314;2023-06-10T05:11:23;100129.66;;;15.06;47.93
44138;BME280;29800;55.942;37.314;2023-06-10T05:13:49;100127.78;;;15.22;48.38
44138;BME280;29800;55.942;37.314;2023-06-10T05:16:16;100131.09;;;15.34;51.39
44138;BME280;29800;55.942;37.314;2023-06-10T05:18:42;100136.34;;;15.36;49.98
44138;BME280;29800;55.942;37.314;2023-06-10T05:21:08;100138.00;;;15.32;47.25
44138;BME280;29800;55.942;37.314;2023-06-10T05:23:35;100133.03;;;15.29;48.06
44138;BME280;29800;55.942;37.314;2023-06-10T05:26:01;100131.91;;;15.19;47.13
44138;BME280;29800;55.942;37.314;2023-06-10T05:28:27;100130.75;;;15.10;46.67
44138;BME280;29800;55.942;37.314;2023-06-10T05:30:53;100136.63;;;15.34;51.25
44138;BME280;29800;55.942;37.314;2023-06-10T05:33:20;100139.09;;;15.31;47.50
44138;BME280;29800;55.942;37.314;2023-06-10T05:35:46;100141.03;;;15.30;47.48
44138;BME280;29800;55.942;37.314;2023-06-10T05:38:12;100152.38;;;15.44;50.14
44138;BME280;29800;55.942;37.314;2023-06-10T05:40:38;100144.94;;;15.50;50.50
44138;BME280;29800;55.942;37.314;2023-06-10T05:43:05;100149.38;;;15.61;52.18
44138;BME280;29800;55.942;37.314;2023-06-10T05:45:31;100155.72;;;15.56;46.58
44138;BME280;29800;55.942;37.314;2023-06-10T05:47:58;100156.53;;;15.57;46.36
44138;BME280;29800;55.942;37.314;2023-06-10T05:50:24;100158.75;;;15.55;47.04
44138;BME280;29800;55.942;37.314;2023-06-10T05:52:51;100147.44;;;15.56;48.10
44138;BME280;29800;55.942;37.314;2023-06-10T05:55:19;100149.66;;;15.59;46.78
44138;BME280;29800;55.942;37.314;2023-06-10T05:57:46;100152.41;;;15.59;46.06
44138;BME280;29800;55.942;37.314;2023-06-10T06:00:12;100157.34;;;15.57;45.18
44138;BME280;29800;55.942;37.314;2023-06-10T06:02:39;100161.22;;;15.56;46.35
44138;BME280;29800;55.942;37.314;2023-06-10T06:05:06;100162.03;;;15.47;45.02
44138;BME280;29800;55.942;37.314;2023-06-10T06:07:32;100162.88;;;15.52;48.54
44138;BME280;29800;55.942;37.314;2023-06-10T06:09:59;100152.41;;;15.65;46.40
44138;BME280;29800;55.942;37.314;2023-06-10T06:12:25;100152.16;;;15.71;45.66
44138;BME280;29800;55.942;37.314;2023-06-10T06:14:51;100156.88;;;15.76;46.03
44138;BME280;29800;55.942;37.314;2023-06-10T06:17:17;100139.22;;;15.87;48.80
44138;BME280;29800;55.942;37.314;2023-06-10T06:19:44;100148.59;;;16.07;49.32
44138;BME280;29800;55.942;37.314;2023-06-10T06:22:11;100154.94;;;16.23;47.48
44138;BME280;29800;55.942;37.314;2023-06-10T06:24:37;100149.41;;;16.38;48.36
44138;BME280;29800;55.942;37.314;2023-06-10T06:27:03;100162.09;;;16.39;46.72
44138;BME280;29800;55.942;37.314;2023-06-10T06:29:30;100158.53;;;16.33;48.37
44138;BME280;29800;55.942;37.314;2023-06-10T06:31:56;100156.06;;;16.22;46.10
44138;BME280;29800;55.942;37.314;2023-06-10T06:34:23;100162.38;;;16.02;46.73
44138;BME280;29800;55.942;37.314;2023-06-10T06:36:49;100177.28;;;15.80;45.17
44138;BME280;29800;55.942;37.314;2023-06-10T06:39:17;100173.09;;;15.67;45.99
44138;BME280;29800;55.942;37.314;2023-06-10T06:41:45;100170.59;;;15.55;45.46
44138;BME280;29800;55.942;37.314;2023-06-10T06:44:11;100179.13;;;15.43;45.51
44138;BME280;29800;55.942;37.314;2023-06-10T06:46:38;100166.69;;;15.36;45.63
44138;BME280;29800;55.942;37.314;2023-06-10T06:49:05;100182.75;;;15.65;49.68
44138;BME280;29800;55.942;37.314;2023-06-10T06:51:31;100184.75;;;15.95;50.09
44138;BME280;29800;55.942;37.314;2023-06-10T06:53:57;100184.78;;;16.15;47.93
44138;BME280;29800;55.942;37.314;2023-06-10T06:56:25;100186.13;;;16.33;47.70
44138;BME280;29800;55.942;37.314;2023-06-10T06:58:53;100195.50;;;16.58;46.52
44138;BME280;29800;55.942;37.314;2023-06-10T07:01:19;100192.72;;;16.63;45.00
44138;BME280;29800;55.942;37.314;2023-06-10T07:03:46;100191.03;;;16.78;44.92
44138;BME280;29800;55.942;37.314;2023-06-10T07:06:13;100185.22;;;16.89;43.94
44138;BME280;29800;55.942;37.314;2023-06-10T07:08:39;100197.13;;;16.85;43.68
44138;BME280;29800;55.942;37.314;2023-06-10T07:11:05;100193.25;;;16.86;43.76
44138;BME280;29800;55.942;37.314;2023-06-10T07:13:32;100186.59;;;16.82;43.03
44138;BME280;29800;55.942;37.314;2023-06-10T07:15:59;100189.34;;;16.92;45.78
44138;BME280;29800;55.942;37.314;2023-06-10T07:18:25;100184.97;;;16.86;43.24
44138;BME280;29800;55.942;37.314;2023-06-10T07:20:51;100192.09;;;17.02;45.25
44138;BME280;29800;55.942;37.314;2023-06-10T07:23:18;100201.53;;;16.86;43.20
44138;BME280;29800;55.942;37.314;2023-06-10T07:25:44;100197.41;;;16.73;42.49
44138;BME280;29800;55.942;37.314;2023-06-10T07:28:10;100201.25;;;16.72;42.87
44138;BME280;29800;55.942;37.314;2023-06-10T07:30:38;100197.38;;;16.83;42.11
44138;BME280;29800;55.942;37.314;2023-06-10T07:33:04;100195.91;;;17.12;41.71
44138;BME280;29800;55.942;37.314;2023-06-10T07:35:33;100198.56;;;17.37;40.60
44138;BME280;29800;55.942;37.314;2023-06-10T07:37:59;100198.47;;;17.58;39.67
44138;BME280;29800;55.942;37.314;2023-06-10T07:40:26;100196.66;;;17.88;39.47
44138;BME280;29800;55.942;37.314;2023-06-10T07:42:52;100192.06;;;18.07;38.28
44138;BME280;29800;55.942;37.314;2023-06-10T07:45:19;100195.81;;;18.22;38.70
44138;BME280;29800;55.942;37.314;2023-06-10T07:47:48;100203.66;;;18.44;38.32
44138;BME280;29800;55.942;37.314;2023-06-10T07:50:16;100197.84;;;18.45;35.70
44138;BME280;29800;55.942;37.314;2023-06-10T07:52:42;100210.38;;;18.67;36.05
44138;BME280;29800;55.942;37.314;2023-06-10T07:55:09;100211.63;;;18.80;34.25
44138;BME280;29800;55.942;37.314;2023-06-10T07:57:35;100216.50;;;18.93;33.88
44138;BME280;29800;55.942;37.314;2023-06-10T08:00:06;100206.06;;;19.09;34.61
44138;BME280;29800;55.942;37.314;2023-06-10T08:02:43;100200.84;;;19.26;33.78
44138;BME280;29800;55.942;37.314;2023-06-10T08:05:09;100201.31;;;19.53;34.44
44138;BME280;29800;55.942;37.314;2023-06-10T08:07:36;100203.25;;;19.76;35.40
44138;BME280;29800;55.942;37.314;2023-06-10T08:10:03;100200.91;;;20.02;35.18
44138;BME280;29800;55.942;37.314;2023-06-10T08:12:33;100206.53;;;19.97;33.30
44138;BME280;29800;55.942;37.314;2023-06-10T08:15:01;100218.16;;;19.80;32.99
44138;BME280;29800;55.942;37.314;2023-06-10T08:17:32;100218.44;;;19.60;33.66
44138;BME280;29800;55.942;37.314;2023-06-10T08:20:00;100227.63;;;19.36;33.83
44138;BME280;29800;55.942;37.314;2023-06-10T08:22:27;100226.94;;;19.25;33.22
44138;BME280;29800;55.942;37.314;2023-06-10T08:24:55;100224.75;;;19.22;33.61
44138;BME280;29800;55.942;37.314;2023-06-10T08:27:22;100228.47;;;19.13;32.87
44138;BME280;29800;55.942;37.314;2023-06-10T08:29:48;100232.19;;;19.03;33.62
44138;BME280;29800;55.942;37.314;2023-06-10T08:32:14;100226.19;;;18.96;33.07
44138;BME280;29800;55.942;37.314;2023-06-10T08:34:41;100229.50;;;18.98;34.67
44138;BME280;29800;55.942;37.314;2023-06-10T08:37:08;100224.31;;;19.15;33.69
44138;BME280;29800;55.942;37.314;2023-06-10T08:39:35;100232.28;;;19.41;34.66
44138;BME280;29800;55.942;37.314;2023-06-10T08:44:55;100233.25;;;19.93;33.37
44138;BME280;29800;55.942;37.314;2023-06-10T08:47:25;100232.97;;;20.14;31.87
44138;BME280;29800;55.942;37.314;2023-06-10T08:49:56;100239.25;;;20.52;33.88
44138;BME280;29800;55.942;37.314;2023-06-10T08:52:28;100242.03;;;20.52;31.48
44138;BME280;29800;55.942;37.314;2023-06-10T08:55:18;100246.16;;;20.55;31.70
44138;BME280;29800;55.942;37.314;2023-06-10T08:57:45;100248.25;;;20.30;31.82
44138;BME280;29800;55.942;37.314;2023-06-10T09:00:15;100242.94;;;20.15;31.47
44138;BME280;29800;55.942;37.314;2023-06-10T09:02:43;100254.88;;;19.96;32.15
44138;BME280;29800;55.942;37.314;2023-06-10T09:05:10;100244.09;;;19.71;30.97
44138;BME280;29800;55.942;37.314;2023-06-10T09:07:37;100249.22;;;19.63;31.06
44138;BME280;29800;55.942;37.314;2023-06-10T09:10:04;100254.38;;;19.70;31.52
44138;BME280;29800;55.942;37.314;2023-06-10T09:12:34;100250.09;;;19.83;32.07
44138;BME280;29800;55.942;37.314;2023-06-10T09:15:01;100253.69;;;20.02;31.01
44138;BME280;29800;55.942;37.314;2023-06-10T09:17:32;100256.03;;;20.28;30.19
44138;BME280;29800;55.942;37.314;2023-06-10T09:19:59;100255.84;;;20.57;30.92
44138;BME280;29800;55.942;37.314;2023-06-10T09:22:26;100254.34;;;20.65;28.78
44138;BME280;29800;55.942;37.314;2023-06-10T09:25:09;100254.19;;;20.89;30.57
44138;BME280;29800;55.942;37.314;2023-06-10T09:28:12;100246.50;;;21.14;31.95
44138;BME280;29800;55.942;37.314;2023-06-10T09:30:39;100248.75;;;20.98;28.85
44138;BME280;29800;55.942;37.314;2023-06-10T09:33:13;100239.19;;;21.04;29.20
44138;BME280;29800;55.942;37.314;2023-06-10T09:35:48;100231.53;;;21.10;29.38
44138;BME280;29800;55.942;37.314;2023-06-10T09:38:22;100241.63;;;21.20;29.01
44138;BME280;29800;55.942;37.314;2023-06-10T09:40:50;100248.47;;;21.14;28.78
44138;BME280;29800;55.942;37.314;2023-06-10T09:43:17;100254.81;;;21.00;28.09
44138;BME280;29800;55.942;37.314;2023-06-10T09:45:43;100255.31;;;20.88;28.50
44138;BME280;29800;55.942;37.314;2023-06-10T09:48:10;100257.50;;;20.91;28.66
44138;BME280;29800;55.942;37.314;2023-06-10T09:50:43;100253.19;;;20.99;28.62
44138;BME280;29800;55.942;37.314;2023-06-10T09:53:11;100253.38;;;21.03;31.69
44138;BME280;29800;55.942;37.314;2023-06-10T09:55:38;100249.88;;;21.25;28.31
44138;BME280;29800;55.942;37.314;2023-06-10T09:58:05;100246.81;;;21.54;28.64
44138;BME280;29800;55.942;37.314;2023-06-10T10:00:32;100250.81;;;21.62;28.81
44138;BME280;29800;55.942;37.314;2023-06-10T10:02:59;100246.59;;;21.51;29.66
44138;BME280;29800;55.942;37.314;2023-06-10T10:05:27;100257.00;;;21.31;28.56
44138;BME280;29800;55.942;37.314;2023-06-10T10:07:53;100252.47;;;21.07;28.42
44138;BME280;29800;55.942;37.314;2023-06-10T10:10:23;100251.72;;;20.88;27.98
44138;BME280;29800;55.942;37.314;2023-06-10T10:12:54;100254.16;;;20.75;27.92
44138;BME280;29800;55.942;37.314;2023-06-10T10:15:28;100254.56;;;20.69;27.88
44138;BME280;29800;55.942;37.314;2023-06-10T10:18:04;100254.94;;;20.62;28.81
44138;BME280;29800;55.942;37.314;2023-06-10T10:20:35;100251.06;;;20.63;28.47
44138;BME280;29800;55.942;37.314;2023-06-10T10:23:06;100254.94;;;20.62;27.42
44138;BME280;29800;55.942;37.314;2023-06-10T10:25:42;100250.69;;;20.84;26.92
44138;BME280;29800;55.942;37.314;2023-06-10T10:28:09;100236.28;;;21.09;25.87
44138;BME280;29800;55.942;37.314;2023-06-10T10:30:47;100233.81;;;21.50;25.58
44138;BME280;29800;55.942;37.314;2023-06-10T10:33:33;100240.78;;;21.75;26.13
44138;BME280;29800;55.942;37.314;2023-06-10T10:36:02;100244.31;;;21.53;28.38
44138;BME280;29800;55.942;37.314;2023-06-10T10:38:29;100238.03;;;21.33;28.17
44138;BME280;29800;55.942;37.314;2023-06-10T10:40:56;100244.13;;;21.07;27.99
44138;BME280;29800;55.942;37.314;2023-06-10T10:43:27;100251.28;;;20.81;28.06
44138;BME280;29800;55.942;37.314;2023-06-10T10:46:11;100249.22;;;20.72;28.80
44138;BME280;29800;55.942;37.314;2023-06-10T10:48:39;100254.16;;;20.43;27.99
44138;BME280;29800;55.942;37.314;2023-06-10T10:51:07;100255.31;;;20.42;28.34
44138;BME280;29800;55.942;37.314;2023-06-10T10:53:34;100249.38;;;20.29;29.54
44138;BME280;29800;55.942;37.314;2023-06-10T10:56:06;100258.78;;;20.33;29.71
44138;BME280;29800;55.942;37.314;2023-06-10T10:58:34;100250.50;;;20.28;29.02
44138;BME280;29800;55.942;37.314;2023-06-10T11:01:13;100254.25;;;20.37;29.03
44138;BME280;29800;55.942;37.314;2023-06-10T11:03:45;100256.03;;;20.28;29.61
44138;BME280;29800;55.942;37.314;2023-06-10T11:06:14;100256.22;;;20.18;28.74
44138;BME280;29800;55.942;37.314;2023-06-10T11:11:21;100250.13;;;20.35;29.08
44138;BME280;29800;55.942;37.314;2023-06-10T11:16:42;100248.84;;;20.60;29.82
44138;BME280;29800;55.942;37.314;2023-06-10T11:19:09;100247.38;;;20.68;28.03
44138;BME280;29800;55.942;37.314;2023-06-10T11:21:58;100245.97;;;20.98;28.57
44138;BME280;29800;55.942;37.314;2023-06-10T11:24:29;100247.63;;;20.99;27.61
44138;BME280;29800;55.942;37.314;2023-06-10T11:27:17;100248.75;;;20.98;28.69
44138;BME280;29800;55.942;37.314;2023-06-10T11:32:34;100271.19;;;20.55;29.82
44138;BME280;29800;55.942;37.314;2023-06-10T11:35:06;100267.94;;;20.34;28.82
44138;BME280;29800;55.942;37.314;2023-06-10T11:37:33;100271.63;;;20.10;29.91
44138;BME280;29800;55.942;37.314;2023-06-10T11:39:59;100270.97;;;19.99;30.32
44138;BME280;29800;55.942;37.314;2023-06-10T11:42:26;100275.00;;;19.88;30.52
44138;BME280;29800;55.942;37.314;2023-06-10T11:44:53;100270.94;;;19.80;30.27
44138;BME280;29800;55.942;37.314;2023-06-10T11:47:20;100270.22;;;19.70;31.21
44138;BME280;29800;55.942;37.314;2023-06-10T11:49:57;100274.34;;;19.72;31.28
44138;BME280;29800;55.942;37.314;2023-06-10T11:52:30;100273.97;;;19.60;32.02
44138;BME280;29800;55.942;37.314;2023-06-10T11:55:04;100275.53;;;19.47;33.46
44138;BME280;29800;55.942;37.314;2023-06-10T11:57:34;100276.41;;;19.42;31.07
44138;BME280;29800;55.942;37.314;2023-06-10T12:00:05;100275.72;;;19.32;31.48
44138;BME280;29800;55.942;37.314;2023-06-10T12:02:37;100282.38;;;19.31;31.39
44138;BME280;29800;55.942;37.314;2023-06-10T12:05:13;100281.78;;;19.34;31.60
44138;BME280;29800;55.942;37.314;2023-06-10T12:07:40;100280.25;;;19.22;31.09
44138;BME280;29800;55.942;37.314;2023-06-10T12:10:07;100279.66;;;19.25;30.61
44138;BME280;29800;55.942;37.314;2023-06-10T12:12:36;100273.41;;;19.39;31.91
44138;BME280;29800;55.942;37.314;2023-06-10T12:15:03;100277.28;;;19.38;29.77
44138;BME280;29800;55.942;37.314;2023-06-10T12:20:08;100275.09;;;19.83;29.87
44138;BME280;29800;55.942;37.314;2023-06-10T12:22:42;100280.72;;;20.16;30.03
44138;BME280;29800;55.942;37.314;2023-06-10T12:25:10;100283.25;;;20.31;29.41
44138;BME280;29800;55.942;37.314;2023-06-10T12:27:37;100273.59;;;20.43;29.72
44138;BME280;29800;55.942;37.314;2023-06-10T12:30:05;100275.00;;;20.59;32.19
44138;BME280;29800;55.942;37.314;2023-06-10T12:32:42;100275.38;;;20.71;29.20
44138;BME280;29800;55.942;37.314;2023-06-10T12:35:10;100271.72;;;20.90;28.94
44138;BME280;29800;55.942;37.314;2023-06-10T12:37:40;100273.59;;;20.95;28.02
44138;BME280;29800;55.942;37.314;2023-06-10T12:40:07;100268.31;;;21.07;28.86
44138;BME280;29800;55.942;37.314;2023-06-10T12:42:38;100274.84;;;21.02;27.22
44138;BME280;29800;55.942;37.314;2023-06-10T12:45:05;100268.66;;;21.05;28.11
44138;BME280;29800;55.942;37.314;2023-06-10T12:47:35;100272.88;;;21.17;27.87
44138;BME280;29800;55.942;37.314;2023-06-10T12:50:02;100261.00;;;21.25;26.73
44138;BME280;29800;55.942;37.314;2023-06-10T12:52:32;100260.59;;;21.32;26.38
44138;BME280;29800;55.942;37.314;2023-06-10T12:54:59;100267.63;;;21.29;25.67
44138;BME280;29800;55.942;37.314;2023-06-10T12:57:29;100261.94;;;21.34;25.64
44138;BME280;29800;55.942;37.314;2023-06-10T12:59:58;100258.56;;;21.37;27.43
44138;BME280;29800;55.942;37.314;2023-06-10T13:02:33;100264.13;;;21.37;27.56
44138;BME280;29800;55.942;37.314;2023-06-10T13:05:00;100262.28;;;21.46;28.06